Time;durP1;ratioP1;P1;durP2;ratioP2;P2;SDS_P1;SDS_P2;PMS_P1;PMS_P2;Temp;Humidity;BMP_temperature;BMP_pressure;BME280_temperature;BME280_humidity;BME280_pressure;Samples;Min_cycle;Max_cycle;Signal;HPM_P1;HPM_P2
2024/04/11 00:00:24;;;;;;;;;;;22.10;59.30;;;;;;5470236;26;19928;-47
2024/04/11 00:02:51;;;;;;;;;;;22.10;59.40;;;;;;5466784;26;20042;-49
2024/04/11 00:05:17;;;;;;;;;;;22.10;59.40;;;;;;5462087;26;20302;-50
2024/04/11 00:07:42;;;;;;;;;;;22.10;59.40;;;;;;5475900;26;19928;-48
2024/04/11 00:10:08;;;;;;;;;;;22.10;59.40;;;;;;5479673;26;19935;-54
2024/04/11 00:12:34;;;;;;;;;;;22.10;59.40;;;;;;5471034;26;19932;-51
2024/04/11 00:15:00;;;;;;;;;;;22.10;59.20;;;;;;5478864;26;19935;-46
2024/04/11 00:17:26;;;;;;;;;;;22.10;59.00;;;;;;5475107;26;19928;-52
2024/04/11 00:19:53;;;;;;;;;;;22.00;58.70;;;;;;5483160;26;19944;-47
2024/04/11 00:22:19;;;;;;;;;;;22.00;58.80;;;;;;5473315;26;19932;-51
2024/04/11 00:24:48;;;;;;;;;;;22.00;58.70;;;;;;5488344;26;19928;-50
2024/04/11 00:27:15;;;;;;;;;;;22.00;58.60;;;;;;5494102;26;19935;-49
2024/04/11 00:29:41;;;;;;;;;;;22.00;58.80;;;;;;5480766;26;20244;-50
2024/04/11 00:32:09;;;;;;;;;;;22.00;59.00;;;;;;5477598;26;19932;-51
2024/04/11 00:34:38;;;;;;;;;;;22.00;59.20;;;;;;5477278;26;19929;-50
2024/04/11 00:37:05;;;;;;;;;;;22.00;59.20;;;;;;5465608;26;19928;-52
2024/04/11 00:39:31;;;;;;;;;;;22.00;59.30;;;;;;5465690;26;20270;-52
2024/04/11 00:41:59;;;;;;;;;;;22.00;59.30;;;;;;5464802;26;19974;-49
2024/04/11 00:44:25;;;;;;;;;;;22.00;59.40;;;;;;5480989;26;20988;-48
2024/04/11 00:46:52;;;;;;;;;;;22.00;59.40;;;;;;5451882;26;19940;-49
2024/04/11 00:49:21;;;;;;;;;;;22.00;59.10;;;;;;5478664;26;19956;-49
2024/04/11 00:51:47;;;;;;;;;;;21.90;59.00;;;;;;5474707;26;19935;-49
2024/04/11 00:54:15;;;;;;;;;;;21.90;58.90;;;;;;5441936;26;21148;-47
2024/04/11 00:56:43;;;;;;;;;;;21.90;58.90;;;;;;5474230;26;19940;-47
2024/04/11 00:59:09;;;;;;;;;;;21.90;58.90;;;;;;5474158;26;19940;-48
2024/04/11 01:01:35;;;;;;;;;;;21.90;59.40;;;;;;5444084;26;19928;-51
2024/04/11 01:04:03;;;;;;;;;;;21.90;58.90;;;;;;5473995;26;19944;-47
2024/04/11 01:06:41;;;;;;;;;;;21.90;58.90;;;;;;5470703;26;19928;-46
2024/04/11 01:09:07;;;;;;;;;;;21.90;59.00;;;;;;5471598;26;19928;-48
2024/04/11 01:11:33;;;;;;;;;;;21.90;59.20;;;;;;5474778;26;19943;-49
2024/04/11 01:13:59;;;;;;;;;;;21.90;59.10;;;;;;5474629;26;19943;-45
2024/04/11 01:16:28;;;;;;;;;;;21.80;59.10;;;;;;5486764;26;19928;-45
2024/04/11 01:18:55;;;;;;;;;;;21.90;59.10;;;;;;5484943;26;19935;-48
2024/04/11 01:21:22;;;;;;;;;;;21.80;59.10;;;;;;5477215;26;20477;-46
2024/04/11 01:23:48;;;;;;;;;;;21.80;59.10;;;;;;5463486;26;19966;-48
2024/04/11 01:26:14;;;;;;;;;;;21.80;59.10;;;;;;5482832;26;20471;-50
2024/04/11 01:28:40;;;;;;;;;;;21.80;59.10;;;;;;5484148;26;19940;-50
2024/04/11 01:31:07;;;;;;;;;;;21.80;59.10;;;;;;5479188;26;19948;-48
2024/04/11 01:33:33;;;;;;;;;;;21.80;58.90;;;;;;5486097;26;19928;-50
2024/04/11 01:35:59;;;;;;;;;;;21.80;59.10;;;;;;5491822;26;19996;-45
2024/04/11 01:38:25;;;;;;;;;;;21.80;59.10;;;;;;5496191;26;19934;-46
2024/04/11 01:40:51;;;;;;;;;;;21.80;59.10;;;;;;5483501;26;20649;-49
2024/04/11 01:43:17;;;;;;;;;;;21.80;59.10;;;;;;5469811;26;19928;-47
2024/04/11 01:45:45;;;;;;;;;;;21.70;59.10;;;;;;5485939;26;19942;-48
2024/04/11 01:48:13;;;;;;;;;;;21.70;59.10;;;;;;5451020;26;19928;-49
2024/04/11 01:50:42;;;;;;;;;;;21.70;59.10;;;;;;5472910;26;19964;-48
2024/04/11 01:53:08;;;;;;;;;;;21.70;59.10;;;;;;5471565;26;19932;-47
2024/04/11 01:55:34;;;;;;;;;;;21.70;59.10;;;;;;5472199;26;19935;-47
2024/04/11 01:58:04;;;;;;;;;;;21.70;59.10;;;;;;5472401;26;19935;-50
2024/04/11 02:00:36;;;;;;;;;;;21.70;59.10;;;;;;5472791;26;19960;-49
2024/04/11 02:03:04;;;;;;;;;;;21.70;59.10;;;;;;5471195;26;20264;-48
2024/04/11 02:05:31;;;;;;;;;;;21.70;59.10;;;;;;5472452;26;19939;-46
2024/04/11 02:07:57;;;;;;;;;;;21.70;59.10;;;;;;5470825;26;19928;-47
2024/04/11 02:10:23;;;;;;;;;;;21.60;59.10;;;;;;5475311;26;19947;-48
2024/04/11 02:12:49;;;;;;;;;;;21.60;59.10;;;;;;5469447;26;20269;-50
2024/04/11 02:15:15;;;;;;;;;;;21.60;59.20;;;;;;5477993;26;19928;-45
2024/04/11 02:17:41;;;;;;;;;;;21.60;59.20;;;;;;5484204;26;20732;-45
2024/04/11 02:20:10;;;;;;;;;;;21.60;59.20;;;;;;5475730;26;19937;-49
2024/04/11 02:22:36;;;;;;;;;;;21.60;59.20;;;;;;5471919;26;19936;-49
2024/04/11 02:25:03;;;;;;;;;;;21.60;59.20;;;;;;5490438;26;19927;-45
2024/04/11 02:27:29;;;;;;;;;;;21.60;59.20;;;;;;5495093;26;19935;-49
2024/04/11 02:29:55;;;;;;;;;;;21.60;59.20;;;;;;5492627;26;19935;-47
2024/04/11 02:32:21;;;;;;;;;;;21.60;59.20;;;;;;5496072;26;20324;-45
2024/04/11 02:34:47;;;;;;;;;;;21.60;59.20;;;;;;5481942;26;19927;-46
2024/04/11 02:37:14;;;;;;;;;;;21.50;59.20;;;;;;5465093;26;19939;-44
2024/04/11 02:39:40;;;;;;;;;;;21.50;59.20;;;;;;5463412;26;19974;-44
2024/04/11 02:42:06;;;;;;;;;;;21.50;59.20;;;;;;5462770;26;19933;-47
2024/04/11 02:44:33;;;;;;;;;;;21.50;59.30;;;;;;5465702;26;19943;-45
2024/04/11 02:47:01;;;;;;;;;;;21.50;59.30;;;;;;5477020;26;19936;-45
2024/04/11 02:49:27;;;;;;;;;;;21.50;59.30;;;;;;5469435;26;19928;-45
2024/04/11 02:51:53;;;;;;;;;;;21.50;59.30;;;;;;5480400;26;19936;-45
2024/04/11 02:54:19;;;;;;;;;;;21.50;59.40;;;;;;5482251;26;20463;-44
2024/04/11 02:56:46;;;;;;;;;;;21.40;59.30;;;;;;5481600;26;19973;-43
2024/04/11 02:59:12;;;;;;;;;;;21.50;59.40;;;;;;5482220;26;20468;-44
2024/04/11 03:01:38;;;;;;;;;;;21.50;59.50;;;;;;5484569;26;19928;-44
2024/04/11 03:04:04;;;;;;;;;;;21.50;59.50;;;;;;5478759;26;19943;-44
2024/04/11 03:06:31;;;;;;;;;;;21.50;59.50;;;;;;5483010;26;19928;-45
2024/04/11 03:08:58;;;;;;;;;;;21.50;59.60;;;;;;5480286;26;19932;-46
2024/04/11 03:11:24;;;;;;;;;;;21.50;59.60;;;;;;5482013;26;19936;-44
2024/04/11 03:13:58;;;;;;;;;;;21.40;59.60;;;;;;5481722;26;19932;-43
2024/04/11 03:16:24;;;;;;;;;;;21.40;59.50;;;;;;5481971;26;19934;-44
2024/04/11 03:18:53;;;;;;;;;;;21.40;59.60;;;;;;5483316;26;19935;-43
2024/04/11 03:21:19;;;;;;;;;;;21.40;59.60;;;;;;5472876;26;19936;-43
2024/04/11 03:23:47;;;;;;;;;;;21.40;59.70;;;;;;5457662;26;19928;-44
2024/04/11 03:26:15;;;;;;;;;;;21.40;59.60;;;;;;5476330;26;19929;-44
2024/04/11 03:28:42;;;;;;;;;;;21.40;59.60;;;;;;5474823;26;19928;-45
2024/04/11 03:31:08;;;;;;;;;;;21.40;59.70;;;;;;5475219;26;19928;-47
2024/04/11 03:33:34;;;;;;;;;;;21.40;59.80;;;;;;5475191;26;19935;-47
2024/04/11 03:36:01;;;;;;;;;;;21.40;59.80;;;;;;5465008;26;19935;-44
2024/04/11 03:38:28;;;;;;;;;;;21.30;59.90;;;;;;5486275;26;19929;-43
2024/04/11 03:40:58;;;;;;;;;;;21.30;59.80;;;;;;5476287;26;19929;-44
2024/04/11 03:43:24;;;;;;;;;;;21.30;59.90;;;;;;5463164;26;19946;-43
2024/04/11 03:45:51;;;;;;;;;;;21.30;59.90;;;;;;5464396;26;19928;-43
2024/04/11 03:48:18;;;;;;;;;;;21.30;59.90;;;;;;5468795;26;19928;-43
2024/04/11 03:50:44;;;;;;;;;;;21.30;59.90;;;;;;5486910;26;19944;-44
2024/04/11 03:53:11;;;;;;;;;;;21.30;60.00;;;;;;5492368;26;19936;-43
2024/04/11 03:55:41;;;;;;;;;;;21.30;59.90;;;;;;5471118;26;19935;-43
2024/04/11 03:58:07;;;;;;;;;;;21.30;59.90;;;;;;5488499;26;19929;-45
2024/04/11 04:00:33;;;;;;;;;;;21.30;59.80;;;;;;5485401;26;19927;-45
2024/04/11 04:02:59;;;;;;;;;;;21.30;60.00;;;;;;5491157;26;19935;-43
2024/04/11 04:05:26;;;;;;;;;;;21.30;60.00;;;;;;5461707;25;19952;-45
2024/04/11 04:07:52;;;;;;;;;;;21.30;60.90;;;;;;5488274;26;19935;-44
2024/04/11 04:10:20;;;;;;;;;;;21.30;60.20;;;;;;5468596;26;20001;-45
2024/04/11 04:12:45;;;;;;;;;;;21.20;60.20;;;;;;5480871;26;19936;-43
2024/04/11 04:15:14;;;;;;;;;;;21.20;60.30;;;;;;5476320;26;20219;-46
2024/04/11 04:17:39;;;;;;;;;;;21.20;60.40;;;;;;5493563;26;19932;-47
2024/04/11 04:20:09;;;;;;;;;;;21.20;60.40;;;;;;5440004;26;20015;-46
2024/04/11 04:22:35;;;;;;;;;;;21.20;60.40;;;;;;5484857;26;20000;-46
2024/04/11 04:25:03;;;;;;;;;;;21.20;60.40;;;;;;5491637;26;20452;-43
2024/04/11 04:27:31;;;;;;;;;;;21.20;60.60;;;;;;5493647;26;19935;-44
2024/04/11 04:29:57;;;;;;;;;;;21.20;60.50;;;;;;5492592;26;20344;-45
2024/04/11 04:32:23;;;;;;;;;;;21.20;60.50;;;;;;5481082;26;19927;-46
2024/04/11 04:34:49;;;;;;;;;;;21.20;60.60;;;;;;5479668;26;19974;-46
2024/04/11 04:37:17;;;;;;;;;;;21.20;60.70;;;;;;5475143;26;19943;-43
2024/04/11 04:39:44;;;;;;;;;;;21.20;60.70;;;;;;5474775;26;19932;-46
2024/04/11 04:42:12;;;;;;;;;;;21.20;60.70;;;;;;5488004;26;19928;-44
2024/04/11 04:44:40;;;;;;;;;;;21.20;60.80;;;;;;5475111;26;19935;-44
2024/04/11 04:47:15;;;;;;;;;;;21.20;60.80;;;;;;5475301;26;19936;-43
2024/04/11 04:49:44;;;;;;;;;;;21.20;60.90;;;;;;5479449;26;20479;-43
2024/04/11 04:52:10;;;;;;;;;;;21.20;60.90;;;;;;5478274;26;19929;-44
2024/04/11 04:54:36;;;;;;;;;;;21.10;61.00;;;;;;5481757;26;19943;-45
2024/04/11 04:57:03;;;;;;;;;;;21.10;61.00;;;;;;5479158;26;19932;-45
2024/04/11 04:59:29;;;;;;;;;;;21.10;60.90;;;;;;5450067;26;19943;-46
2024/04/11 05:01:55;;;;;;;;;;;21.10;61.00;;;;;;5478041;26;20376;-47
2024/04/11 05:04:21;;;;;;;;;;;21.10;61.00;;;;;;5480540;26;19928;-43
2024/04/11 05:06:49;;;;;;;;;;;21.10;61.10;;;;;;5479356;26;19973;-44
2024/04/11 05:09:15;;;;;;;;;;;21.10;61.00;;;;;;5481495;26;19935;-44
2024/04/11 05:11:44;;;;;;;;;;;21.10;61.00;;;;;;5480664;26;19928;-44
2024/04/11 05:14:09;;;;;;;;;;;21.10;61.10;;;;;;5478946;26;19936;-46
2024/04/11 05:16:35;;;;;;;;;;;21.10;61.20;;;;;;5480594;26;19932;-43
2024/04/11 05:19:04;;;;;;;;;;;21.10;61.20;;;;;;5483482;26;19928;-46
2024/04/11 05:21:29;;;;;;;;;;;21.10;61.30;;;;;;5475721;26;19935;-43
2024/04/11 05:23:56;;;;;;;;;;;21.10;61.20;;;;;;5482708;26;19933;-49
2024/04/11 05:26:25;;;;;;;;;;;21.10;61.10;;;;;;5483612;26;19935;-45
2024/04/11 05:28:52;;;;;;;;;;;21.10;61.20;;;;;;5468608;26;19941;-44
2024/04/11 05:31:18;;;;;;;;;;;21.10;61.30;;;;;;5483539;26;19954;-43
2024/04/11 05:33:44;;;;;;;;;;;21.10;61.30;;;;;;5496631;26;19936;-46
2024/04/11 05:36:17;;;;;;;;;;;21.10;61.40;;;;;;5469639;26;19932;-42
2024/04/11 05:38:44;;;;;;;;;;;21.10;61.40;;;;;;5483859;26;20006;-43
2024/04/11 05:41:14;;;;;;;;;;;21.10;61.40;;;;;;5494561;26;19975;-45
2024/04/11 05:43:43;;;;;;;;;;;21.10;61.40;;;;;;5496448;26;20761;-44
2024/04/11 05:46:13;;;;;;;;;;;21.10;61.50;;;;;;5482661;26;19929;-42
2024/04/11 05:48:42;;;;;;;;;;;21.10;61.40;;;;;;5449124;26;19928;-43
2024/04/11 05:51:10;;;;;;;;;;;21.00;61.30;;;;;;5480714;26;19996;-43
2024/04/11 05:53:36;;;;;;;;;;;21.10;61.50;;;;;;5483674;26;19935;-43
2024/04/11 05:56:09;;;;;;;;;;;21.10;61.40;;;;;;5481736;26;19935;-42
2024/04/11 05:58:37;;;;;;;;;;;21.10;61.40;;;;;;5482986;26;19928;-44
2024/04/11 06:01:05;;;;;;;;;;;21.10;61.50;;;;;;5481434;26;21278;-43
2024/04/11 06:03:34;;;;;;;;;;;21.10;61.50;;;;;;5483371;26;19932;-42
2024/04/11 06:06:00;;;;;;;;;;;21.10;61.50;;;;;;5480240;26;19936;-43
2024/04/11 06:08:26;;;;;;;;;;;21.00;61.50;;;;;;5483550;26;19996;-43
2024/04/11 06:10:52;;;;;;;;;;;21.00;61.60;;;;;;5482482;26;19931;-44
2024/04/11 06:13:18;;;;;;;;;;;21.00;61.50;;;;;;5482588;26;19932;-46
2024/04/11 06:15:47;;;;;;;;;;;21.00;61.50;;;;;;5482651;26;19935;-43
2024/04/11 06:18:18;;;;;;;;;;;21.00;61.50;;;;;;5469430;26;19940;-44
2024/04/11 06:20:44;;;;;;;;;;;21.00;61.60;;;;;;5491310;26;19940;-47
2024/04/11 06:23:15;;;;;;;;;;;21.00;61.50;;;;;;5464698;26;19928;-44
2024/04/11 06:25:41;;;;;;;;;;;21.00;61.60;;;;;;5465021;26;19964;-43
2024/04/11 06:28:11;;;;;;;;;;;21.00;61.60;;;;;;5463851;26;19935;-43
2024/04/11 06:30:38;;;;;;;;;;;21.00;61.60;;;;;;5474209;26;19991;-44
2024/04/11 06:33:11;;;;;;;;;;;21.00;61.70;;;;;;5480114;26;20652;-44
2024/04/11 06:35:37;;;;;;;;;;;21.00;61.50;;;;;;5484979;26;19944;-44
2024/04/11 06:38:07;;;;;;;;;;;21.00;61.50;;;;;;5487063;26;19996;-43
2024/04/11 06:40:33;;;;;;;;;;;21.00;61.60;;;;;;5485291;26;19977;-44
2024/04/11 06:42:59;;;;;;;;;;;21.00;61.70;;;;;;5492124;26;19937;-46
2024/04/11 06:45:25;;;;;;;;;;;21.00;61.70;;;;;;5478148;26;19973;-46
2024/04/11 06:47:52;;;;;;;;;;;20.90;61.60;;;;;;5483275;26;19931;-45
2024/04/11 06:50:20;;;;;;;;;;;20.90;61.60;;;;;;5482621;26;19974;-50
2024/04/11 06:52:47;;;;;;;;;;;20.90;61.60;;;;;;5482109;26;19928;-43
2024/04/11 06:55:14;;;;;;;;;;;20.90;61.70;;;;;;5482907;26;19928;-45
2024/04/11 06:57:44;;;;;;;;;;;20.90;61.60;;;;;;5449660;26;20269;-43
2024/04/11 07:00:55;;;;;;;;;;;20.90;61.60;;;;;;5481914;26;19940;-49
2024/04/11 07:02:56;;;;;;;;;;;20.90;61.60;;;;;;5467447;26;19928;-48
2024/04/11 07:05:22;;;;;;;;;;;20.90;61.50;;;;;;5482953;26;19934;-48
2024/04/11 07:07:54;;;;;;;;;;;20.90;61.60;;;;;;5480897;26;19928;-45
2024/04/11 07:10:25;;;;;;;;;;;20.90;61.60;;;;;;5484770;26;20001;-48
2024/04/11 07:12:59;;;;;;;;;;;20.90;61.70;;;;;;5484544;26;19943;-50
2024/04/11 07:15:29;;;;;;;;;;;20.90;61.70;;;;;;5493552;26;20356;-45
2024/04/11 07:17:57;;;;;;;;;;;20.90;61.70;;;;;;5468858;26;19960;-47
2024/04/11 07:20:25;;;;;;;;;;;20.90;61.60;;;;;;5489381;26;19928;-41
2024/04/11 07:22:54;;;;;;;;;;;20.90;61.70;;;;;;5492786;26;19936;-42
2024/04/11 07:25:22;;;;;;;;;;;20.90;61.60;;;;;;5476156;26;20384;-48
2024/04/11 07:27:49;;;;;;;;;;;20.90;61.80;;;;;;5489153;26;19935;-45
2024/04/11 07:30:17;;;;;;;;;;;20.90;61.70;;;;;;5482781;26;19956;-46
2024/04/11 07:32:45;;;;;;;;;;;20.90;61.90;;;;;;5469461;26;19929;-45
2024/04/11 07:35:14;;;;;;;;;;;20.90;61.90;;;;;;5463174;26;19937;-45
2024/04/11 07:37:44;;;;;;;;;;;20.90;61.80;;;;;;5475514;26;19939;-45
2024/04/11 07:40:45;;;;;;;;;;;20.90;62.60;;;;;;5488364;26;19928;-44
2024/04/11 07:43:08;;;;;;;;;;;20.90;61.70;;;;;;5477835;26;19978;-47
2024/04/11 07:45:36;;;;;;;;;;;20.90;61.70;;;;;;5484082;26;19948;-44
2024/04/11 07:48:12;;;;;;;;;;;20.80;61.70;;;;;;5479891;26;20062;-49
2024/04/11 07:50:38;;;;;;;;;;;20.80;61.70;;;;;;5472116;26;20000;-47
2024/04/11 07:53:07;;;;;;;;;;;20.80;61.70;;;;;;5410053;26;21529;-47
2024/04/11 07:55:33;;;;;;;;;;;20.80;61.70;;;;;;5471335;26;19942;-44
2024/04/11 07:58:05;;;;;;;;;;;20.80;61.70;;;;;;5469616;26;20025;-45
2024/04/11 08:00:39;;;;;;;;;;;20.80;61.70;;;;;;5471946;26;19928;-44
2024/04/11 08:03:05;;;;;;;;;;;20.80;61.70;;;;;;5468699;26;19935;-46
2024/04/11 08:05:32;;;;;;;;;;;20.80;61.80;;;;;;5472243;26;19955;-44
2024/04/11 08:07:59;;;;;;;;;;;20.80;61.70;;;;;;5468895;26;19935;-44
2024/04/11 08:10:28;;;;;;;;;;;20.80;61.80;;;;;;5470708;26;19931;-45
2024/04/11 08:12:54;;;;;;;;;;;20.80;61.90;;;;;;5470551;26;19936;-44
2024/04/11 08:15:20;;;;;;;;;;;20.80;61.80;;;;;;5447989;26;19996;-44
2024/04/11 08:17:47;;;;;;;;;;;20.80;61.90;;;;;;5480846;26;19951;-44
2024/04/11 08:20:13;;;;;;;;;;;20.80;61.90;;;;;;5488507;26;19953;-45
2024/04/11 08:22:39;;;;;;;;;;;20.80;61.80;;;;;;5493865;26;19928;-48
2024/04/11 08:25:14;;;;;;;;;;;20.80;61.80;;;;;;5444552;26;19965;-46
2024/04/11 08:27:40;;;;;;;;;;;20.80;61.80;;;;;;5475769;26;19941;-43
2024/04/11 08:30:06;;;;;;;;;;;20.80;61.90;;;;;;5486910;26;19975;-45
2024/04/11 08:32:32;;;;;;;;;;;20.80;61.90;;;;;;5473477;26;19928;-45
2024/04/11 08:35:00;;;;;;;;;;;20.80;62.00;;;;;;5462279;26;19935;-44
2024/04/11 08:37:28;;;;;;;;;;;20.80;61.90;;;;;;5469942;26;19927;-45
2024/04/11 08:39:54;;;;;;;;;;;20.80;62.00;;;;;;5466121;26;19929;-46
2024/04/11 08:42:20;;;;;;;;;;;20.80;62.10;;;;;;5494135;26;19991;-45
2024/04/11 08:44:50;;;;;;;;;;;20.80;62.10;;;;;;5482761;26;20016;-43
2024/04/11 08:47:16;;;;;;;;;;;20.80;62.10;;;;;;5479017;26;19932;-44
2024/04/11 08:49:42;;;;;;;;;;;20.80;62.10;;;;;;5486769;26;19928;-43
2024/04/11 08:52:09;;;;;;;;;;;20.70;62.00;;;;;;5480740;26;19928;-45
2024/04/11 08:54:35;;;;;;;;;;;20.70;61.90;;;;;;5484468;26;19947;-45
2024/04/11 08:57:01;;;;;;;;;;;20.70;62.00;;;;;;5452108;26;19935;-47
2024/04/11 08:59:27;;;;;;;;;;;20.70;62.00;;;;;;5483256;26;19943;-44
2024/04/11 09:01:53;;;;;;;;;;;20.70;62.10;;;;;;5483952;26;22412;-43
2024/04/11 09:04:19;;;;;;;;;;;20.70;62.10;;;;;;5482722;26;20084;-44
2024/04/11 09:06:53;;;;;;;;;;;20.70;62.20;;;;;;5484882;26;19931;-45
2024/04/11 09:09:19;;;;;;;;;;;20.70;62.10;;;;;;5486185;26;20751;-45
2024/04/11 09:11:46;;;;;;;;;;;20.70;62.20;;;;;;5484259;26;19936;-46
2024/04/11 09:14:14;;;;;;;;;;;20.70;62.20;;;;;;5481217;26;19933;-43
2024/04/11 09:16:42;;;;;;;;;;;20.70;62.20;;;;;;5484330;26;19931;-45
2024/04/11 09:19:09;;;;;;;;;;;20.70;62.20;;;;;;5483501;26;19928;-43
2024/04/11 09:21:43;;;;;;;;;;;20.70;62.20;;;;;;5475955;26;19937;-47
2024/04/11 09:24:23;;;;;;;;;;;20.70;62.20;;;;;;5496049;26;19928;-43
2024/04/11 09:26:49;;;;;;;;;;;20.70;62.30;;;;;;5488828;26;20394;-43
2024/04/11 09:29:17;;;;;;;;;;;20.70;62.20;;;;;;5477356;26;19941;-43
2024/04/11 09:31:43;;;;;;;;;;;20.70;62.40;;;;;;5477581;26;19963;-43
2024/04/11 09:34:12;;;;;;;;;;;20.70;62.50;;;;;;5478511;26;19932;-47
2024/04/11 09:36:59;;;;;;;;;;;20.70;62.40;;;;;;5475368;26;19968;-43
2024/04/11 09:39:46;;;;;;;;;;;20.70;62.30;;;;;;5464961;26;19928;-43
2024/04/11 09:42:18;;;;;;;;;;;20.70;62.20;;;;;;5468560;26;19929;-45
2024/04/11 09:44:48;;;;;;;;;;;20.70;62.30;;;;;;5474115;26;19929;-42
2024/04/11 09:47:20;;;;;;;;;;;20.70;62.30;;;;;;5462763;26;19970;-42
2024/04/11 09:49:53;;;;;;;;;;;20.70;62.40;;;;;;5474486;26;20888;-44
2024/04/11 09:52:20;;;;;;;;;;;20.70;62.30;;;;;;5481525;26;19935;-46
2024/04/11 09:54:46;;;;;;;;;;;20.70;62.40;;;;;;5483358;26;19944;-44
2024/04/11 09:57:12;;;;;;;;;;;20.70;62.40;;;;;;5483291;26;19936;-43
2024/04/11 09:59:38;;;;;;;;;;;20.70;62.40;;;;;;5451418;26;19939;-43
2024/04/11 10:02:04;;;;;;;;;;;20.70;62.40;;;;;;5481397;26;19964;-46
2024/04/11 10:04:35;;;;;;;;;;;20.70;62.50;;;;;;5483227;26;19935;-46
2024/04/11 10:07:12;;;;;;;;;;;20.70;62.40;;;;;;5482760;26;19928;-42
2024/04/11 10:09:46;;;;;;;;;;;20.70;62.40;;;;;;5484196;26;19974;-42
2024/04/11 10:12:15;;;;;;;;;;;20.70;62.30;;;;;;5481123;26;19935;-42
2024/04/11 10:14:44;;;;;;;;;;;20.70;62.50;;;;;;5483824;26;19928;-46
2024/04/11 10:17:13;;;;;;;;;;;20.70;62.50;;;;;;5482908;26;19985;-45
2024/04/11 10:19:43;;;;;;;;;;;20.70;62.60;;;;;;5487445;26;19928;-44
2024/04/11 10:22:15;;;;;;;;;;;20.70;62.50;;;;;;5476833;26;20001;-43
2024/04/11 10:24:44;;;;;;;;;;;20.70;62.50;;;;;;5463478;26;19932;-45
2024/04/11 10:27:19;;;;;;;;;;;20.60;62.50;;;;;;5481881;26;19948;-46
2024/04/11 10:29:48;;;;;;;;;;;20.60;62.40;;;;;;5482621;26;20376;-46
2024/04/11 10:32:22;;;;;;;;;;;20.60;62.30;;;;;;5481251;26;19928;-45
2024/04/11 10:34:55;;;;;;;;;;;20.70;62.60;;;;;;5482353;26;19935;-44
2024/04/11 10:37:25;;;;;;;;;;;20.70;62.70;;;;;;5463929;26;19929;-43
2024/04/11 10:39:54;;;;;;;;;;;20.60;62.50;;;;;;5462829;26;19929;-43
2024/04/11 10:42:27;;;;;;;;;;;20.60;62.60;;;;;;5468465;26;19935;-42
2024/04/11 10:44:53;;;;;;;;;;;20.60;62.50;;;;;;5468937;26;20393;-44
2024/04/11 10:47:19;;;;;;;;;;;20.60;62.50;;;;;;5443616;26;19928;-42
2024/04/11 10:49:45;;;;;;;;;;;20.60;62.60;;;;;;5471923;26;19935;-44
2024/04/11 10:52:14;;;;;;;;;;;20.60;62.60;;;;;;5482265;26;19940;-43
2024/04/11 10:54:40;;;;;;;;;;;20.60;62.60;;;;;;5483213;26;19928;-44
2024/04/11 10:57:12;;;;;;;;;;;20.60;62.70;;;;;;5481323;26;19990;-44
2024/04/11 10:59:50;;;;;;;;;;;20.60;62.70;;;;;;5483020;26;19934;-43
2024/04/11 11:02:19;;;;;;;;;;;20.60;62.50;;;;;;5482748;26;19931;-43
2024/04/11 11:04:45;;;;;;;;;;;20.60;62.70;;;;;;5450707;26;20444;-45
2024/04/11 11:07:11;;;;;;;;;;;20.60;62.70;;;;;;5481887;26;19932;-43
2024/04/11 11:09:45;;;;;;;;;;;20.60;62.50;;;;;;5482909;26;19985;-43
2024/04/11 11:12:11;;;;;;;;;;;20.60;62.70;;;;;;5482570;26;19928;-43
2024/04/11 11:14:37;;;;;;;;;;;20.60;62.60;;;;;;5479009;26;20846;-43
2024/04/11 11:17:07;;;;;;;;;;;20.60;62.50;;;;;;5473746;26;19942;-43
2024/04/11 11:19:34;;;;;;;;;;;20.60;62.50;;;;;;5446605;26;19935;-43
2024/04/11 11:22:00;;;;;;;;;;;20.60;62.50;;;;;;5479438;26;19928;-42
2024/04/11 11:24:29;;;;;;;;;;;20.60;62.60;;;;;;5483008;26;19960;-43
2024/04/11 11:26:58;;;;;;;;;;;20.60;62.60;;;;;;5481769;26;19927;-44
2024/04/11 11:29:27;;;;;;;;;;;20.60;62.60;;;;;;5483158;26;19943;-44
2024/04/11 11:32:01;;;;;;;;;;;20.60;62.60;;;;;;5481469;26;19928;-42
2024/04/11 11:34:31;;;;;;;;;;;20.60;62.50;;;;;;5481485;26;19927;-46
2024/04/11 11:37:00;;;;;;;;;;;20.60;62.50;;;;;;5480438;26;19932;-45
2024/04/11 11:39:33;;;;;;;;;;;20.60;62.50;;;;;;5482144;26;19935;-43
2024/04/11 11:47:33;;;;;;;;;;;20.60;62.50;;;;;;5463674;26;19940;-44
2024/04/11 11:50:10;;;;;;;;;;;20.60;62.60;;;;;;5482010;26;19932;-42
2024/04/11 11:52:39;;;;;;;;;;;20.60;62.50;;;;;;5481404;26;19931;-43
2024/04/11 11:55:05;;;;;;;;;;;20.60;62.50;;;;;;5480411;26;19935;-43
2024/04/11 11:57:39;;;;;;;;;;;20.60;62.50;;;;;;5483345;26;19928;-42
2024/04/11 12:00:23;;;;;;;;;;;20.60;62.60;;;;;;5480952;26;19928;-44
2024/04/11 12:02:52;;;;;;;;;;;20.60;62.50;;;;;;5478095;26;19944;-45
2024/04/11 12:05:25;;;;;;;;;;;20.60;62.50;;;;;;5481529;26;19940;-45
2024/04/11 12:07:54;;;;;;;;;;;20.60;62.50;;;;;;5447879;26;19928;-44
2024/04/11 12:10:21;;;;;;;;;;;20.60;62.50;;;;;;5480051;26;19928;-42
2024/04/11 12:12:48;;;;;;;;;;;20.60;62.50;;;;;;5481219;26;19938;-42
2024/04/11 12:15:14;;;;;;;;;;;20.60;62.50;;;;;;5480471;26;19936;-44
2024/04/11 12:17:40;;;;;;;;;;;20.60;62.40;;;;;;5482929;26;19935;-42
2024/04/11 12:20:07;;;;;;;;;;;20.60;62.60;;;;;;5476493;26;19940;-47
2024/04/11 12:22:36;;;;;;;;;;;20.60;62.60;;;;;;5480980;26;19932;-43
2024/04/11 12:25:02;;;;;;;;;;;20.60;62.50;;;;;;5467340;26;20314;-44
2024/04/11 12:27:28;;;;;;;;;;;20.60;62.50;;;;;;5493060;26;19928;-46
2024/04/11 12:29:58;;;;;;;;;;;20.60;62.60;;;;;;5479245;26;19974;-45
2024/04/11 12:32:25;;;;;;;;;;;20.60;62.60;;;;;;5461181;26;19935;-48
2024/04/11 12:34:55;;;;;;;;;;;20.60;62.50;;;;;;5474594;26;19936;-46
2024/04/11 12:37:24;;;;;;;;;;;20.60;62.50;;;;;;5462606;26;19935;-46
2024/04/11 12:39:56;;;;;;;;;;;20.60;62.50;;;;;;5452314;26;19929;-45
2024/04/11 12:42:29;;;;;;;;;;;20.60;62.70;;;;;;5468972;26;19928;-48
2024/04/11 12:44:58;;;;;;;;;;;20.60;62.70;;;;;;5483032;26;20084;-48
2024/04/11 12:47:38;;;;;;;;;;;20.60;62.60;;;;;;5481555;26;19934;-49
2024/04/11 12:50:13;;;;;;;;;;;20.60;62.50;;;;;;5483718;26;19939;-46
2024/04/11 12:52:44;;;;;;;;;;;20.60;62.50;;;;;;5481018;26;20033;-44
2024/04/11 12:55:11;;;;;;;;;;;20.60;62.60;;;;;;5480918;26;20642;-46
2024/04/11 12:57:37;;;;;;;;;;;20.60;62.50;;;;;;5482652;26;20026;-46
2024/04/11 13:00:32;;;;;;;;;;;20.60;62.60;;;;;;5481175;26;19972;-47
2024/04/11 13:03:06;;;;;;;;;;;20.60;62.60;;;;;;5481514;26;19939;-47
2024/04/11 13:05:51;;;;;;;;;;;20.60;62.60;;;;;;5481312;26;19928;-45
2024/04/11 13:08:23;;;;;;;;;;;20.60;62.60;;;;;;5482840;26;19935;-47
2024/04/11 13:10:49;;;;;;;;;;;20.60;62.50;;;;;;5480517;26;19935;-46
2024/04/11 13:13:18;;;;;;;;;;;20.60;62.60;;;;;;5480952;26;19940;-46
2024/04/11 13:15:44;;;;;;;;;;;20.60;62.50;;;;;;5481168;26;19943;-46
2024/04/11 13:18:12;;;;;;;;;;;20.60;62.50;;;;;;5479186;26;19928;-48
2024/04/11 13:20:38;;;;;;;;;;;20.60;62.60;;;;;;5486532;26;19927;-47
2024/04/11 13:23:11;;;;;;;;;;;20.60;62.60;;;;;;5464441;26;19949;-47
2024/04/11 13:25:42;;;;;;;;;;;20.60;62.60;;;;;;5479373;26;20722;-49
2024/04/11 13:28:12;;;;;;;;;;;20.60;62.80;;;;;;5473860;26;19975;-48
2024/04/11 13:30:42;;;;;;;;;;;20.60;62.70;;;;;;5461412;26;19928;-48
2024/04/11 13:33:14;;;;;;;;;;;20.60;62.90;;;;;;5472803;26;19936;-47
2024/04/11 13:35:48;;;;;;;;;;;20.60;62.90;;;;;;5476065;26;19963;-48
2024/04/11 13:38:16;;;;;;;;;;;20.60;62.80;;;;;;5476773;26;19941;-44
2024/04/11 13:43:09;;;;;;;;;;;20.60;62.90;;;;;;5466962;26;19944;-44
2024/04/11 13:45:40;;;;;;;;;;;20.60;63.10;;;;;;5486611;26;19928;-45
2024/04/11 13:48:07;;;;;;;;;;;20.60;63.00;;;;;;5481587;26;19948;-46
2024/04/11 13:50:52;;;;;;;;;;;20.60;63.00;;;;;;5481568;26;19936;-44
2024/04/11 13:53:21;;;;;;;;;;;20.60;63.00;;;;;;5484628;26;19930;-46
2024/04/11 13:55:47;;;;;;;;;;;20.60;63.10;;;;;;5483116;26;19983;-46
2024/04/11 13:58:13;;;;;;;;;;;20.60;63.10;;;;;;5484383;26;19953;-43
2024/04/11 14:00:39;;;;;;;;;;;20.60;63.10;;;;;;5483428;26;19932;-45
2024/04/11 14:03:23;;;;;;;;;;;20.60;63.00;;;;;;5482148;26;19939;-46
2024/04/11 14:05:59;;;;;;;;;;;20.60;63.00;;;;;;5482543;26;19973;-43
2024/04/11 14:08:31;;;;;;;;;;;20.60;63.10;;;;;;5482720;26;19934;-49
2024/04/11 14:10:57;;;;;;;;;;;20.60;63.10;;;;;;5482185;26;19935;-43
2024/04/11 14:13:23;;;;;;;;;;;20.60;63.00;;;;;;5483623;26;19928;-44
2024/04/11 14:15:52;;;;;;;;;;;20.60;63.10;;;;;;5482223;26;19946;-48
2024/04/11 14:18:28;;;;;;;;;;;20.60;63.00;;;;;;5484561;26;19939;-46
2024/04/11 14:21:17;;;;;;;;;;;20.60;63.10;;;;;;5480304;26;20365;-44
2024/04/11 14:26:51;;;;;;;;;;;20.60;63.20;;;;;;5437160;26;19936;-45
2024/04/11 14:29:21;;;;;;;;;;;20.60;63.30;;;;;;5482496;26;19928;-44
2024/04/11 14:31:52;;;;;;;;;;;20.60;63.40;;;;;;5470820;26;19945;-43
2024/04/11 14:38:06;;;;;;;;;;;20.60;63.40;;;;;;5438885;26;19935;-45